Terminal Aerodrome Forecast
Issued by NWS Sterling, VA

Current Version | Previous Version | Text Only | Print | Product List | Glossary Off
Versions: 1 2 3 4 5 6 7 8 9 10 11 12 13 14 15 16

432
FTUS41 KLWX 281720
TAFMRB
TAF
KMRB 281720Z 2818/2918 08004KT P6SM OVC023
     FM282100 09006KT 6SM BR VCTS OVC015CB
     FM282200 09006KT 3SM BR VCTS OVC015CB
     FM290000 08006KT 1 1/2SM -SHRA OVC008=

USA.gov is the U.S. government's official web portal to all federal, state and local government web resources and services.